sensor_id;sensor_type;location;lat;lon;timestamp;temperature;humidity
43884;DHT22;71973;52.018;5.810;2023-08-21T00:00:08;24.30;69.40
43884;DHT22;71973;52.018;5.810;2023-08-21T00:02:33;24.30;69.30
43884;DHT22;71973;52.018;5.810;2023-08-21T00:04:59;24.30;69.40
43884;DHT22;71973;52.018;5.810;2023-08-21T00:07:24;24.30;69.40
43884;DHT22;71973;52.018;5.810;2023-08-21T00:09:50;24.30;69.40
43884;DHT22;71973;52.018;5.810;2023-08-21T00:12:16;24.30;69.40
43884;DHT22;71973;52.018;5.810;2023-08-21T00:14:42;24.20;69.40
43884;DHT22;71973;52.018;5.810;2023-08-21T00:17:07;24.30;69.40
43884;DHT22;71973;52.018;5.810;2023-08-21T00:19:34;24.30;69.40
43884;DHT22;71973;52.018;5.810;2023-08-21T00:22:00;24.20;69.40
43884;DHT22;71973;52.018;5.810;2023-08-21T00:24:25;24.20;69.40
43884;DHT22;71973;52.018;5.810;2023-08-21T00:26:51;24.30;69.50
43884;DHT22;71973;52.018;5.810;2023-08-21T00:29:17;24.20;69.40
43884;DHT22;71973;52.018;5.810;2023-08-21T00:31:42;24.20;69.50
43884;DHT22;71973;52.018;5.810;2023-08-21T00:34:08;24.30;69.50
43884;DHT22;71973;52.018;5.810;2023-08-21T00:36:33;24.20;69.50
43884;DHT22;71973;52.018;5.810;2023-08-21T00:38:59;24.20;69.50
43884;DHT22;71973;52.018;5.810;2023-08-21T00:41:24;24.20;70.20
43884;DHT22;71973;52.018;5.810;2023-08-21T00:43:50;24.20;69.50
43884;DHT22;71973;52.018;5.810;2023-08-21T00:46:15;24.20;69.50
43884;DHT22;71973;52.018;5.810;2023-08-21T00:48:43;24.20;69.50
43884;DHT22;71973;52.018;5.810;2023-08-21T00:51:09;24.20;69.50
43884;DHT22;71973;52.018;5.810;2023-08-21T00:53:35;24.20;69.40
43884;DHT22;71973;52.018;5.810;2023-08-21T00:56:00;24.20;69.50
43884;DHT22;71973;52.018;5.810;2023-08-21T00:58:27;24.20;69.60
43884;DHT22;71973;52.018;5.810;2023-08-21T01:00:52;24.20;69.60
43884;DHT22;71973;52.018;5.810;2023-08-21T01:03:18;24.20;69.50
43884;DHT22;71973;52.018;5.810;2023-08-21T01:05:45;24.20;69.60
43884;DHT22;71973;52.018;5.810;2023-08-21T01:08:17;24.20;69.60
43884;DHT22;71973;52.018;5.810;2023-08-21T01:10:54;24.10;69.50
43884;DHT22;71973;52.018;5.810;2023-08-21T01:13:47;24.10;69.60
43884;DHT22;71973;52.018;5.810;2023-08-21T01:16:16;24.10;69.50
43884;DHT22;71973;52.018;5.810;2023-08-21T01:18:43;24.10;69.40
43884;DHT22;71973;52.018;5.810;2023-08-21T01:21:09;24.10;69.40
43884;DHT22;71973;52.018;5.810;2023-08-21T01:23:36;24.10;69.40
43884;DHT22;71973;52.018;5.810;2023-08-21T01:26:03;24.10;69.50
43884;DHT22;71973;52.018;5.810;2023-08-21T01:28:29;24.10;69.40
43884;DHT22;71973;52.018;5.810;2023-08-21T01:31:10;24.20;69.40
43884;DHT22;71973;52.018;5.810;2023-08-21T01:33:42;24.10;69.40
43884;DHT22;71973;52.018;5.810;2023-08-21T01:36:10;24.10;69.40
43884;DHT22;71973;52.018;5.810;2023-08-21T01:38:36;24.10;69.40
43884;DHT22;71973;52.018;5.810;2023-08-21T01:41:02;24.20;69.40
43884;DHT22;71973;52.018;5.810;2023-08-21T01:43:28;24.10;69.40
43884;DHT22;71973;52.018;5.810;2023-08-21T01:45:54;24.10;69.40
43884;DHT22;71973;52.018;5.810;2023-08-21T01:48:20;24.10;69.40
43884;DHT22;71973;52.018;5.810;2023-08-21T01:50:45;24.10;69.40
43884;DHT22;71973;52.018;5.810;2023-08-21T01:53:11;24.10;69.40
43884;DHT22;71973;52.018;5.810;2023-08-21T01:55:36;24.10;69.40
43884;DHT22;71973;52.018;5.810;2023-08-21T01:58:02;24.00;69.30
43884;DHT22;71973;52.018;5.810;2023-08-21T02:00:27;24.00;69.30
43884;DHT22;71973;52.018;5.810;2023-08-21T02:02:53;24.10;69.40
43884;DHT22;71973;52.018;5.810;2023-08-21T02:05:18;24.10;69.30
43884;DHT22;71973;52.018;5.810;2023-08-21T02:07:44;24.10;69.40
43884;DHT22;71973;52.018;5.810;2023-08-21T02:10:10;24.00;69.40
43884;DHT22;71973;52.018;5.810;2023-08-21T02:12:36;24.00;69.30
43884;DHT22;71973;52.018;5.810;2023-08-21T02:15:01;24.00;69.30
43884;DHT22;71973;52.018;5.810;2023-08-21T02:17:27;24.00;69.30
43884;DHT22;71973;52.018;5.810;2023-08-21T02:19:52;24.00;69.20
43884;DHT22;71973;52.018;5.810;2023-08-21T02:22:18;24.00;69.20
43884;DHT22;71973;52.018;5.810;2023-08-21T02:24:43;24.00;69.20
43884;DHT22;71973;52.018;5.810;2023-08-21T02:27:09;24.00;69.20
43884;DHT22;71973;52.018;5.810;2023-08-21T02:29:34;24.00;69.20
43884;DHT22;71973;52.018;5.810;2023-08-21T02:32:00;24.00;69.30
43884;DHT22;71973;52.018;5.810;2023-08-21T02:34:26;24.00;69.20
43884;DHT22;71973;52.018;5.810;2023-08-21T02:36:52;24.00;69.20
43884;DHT22;71973;52.018;5.810;2023-08-21T02:39:17;24.00;69.30
43884;DHT22;71973;52.018;5.810;2023-08-21T02:41:43;24.00;69.20
43884;DHT22;71973;52.018;5.810;2023-08-21T02:44:08;24.00;69.20
43884;DHT22;71973;52.018;5.810;2023-08-21T02:46:34;24.00;69.30
43884;DHT22;71973;52.018;5.810;2023-08-21T02:49:01;24.00;69.30
43884;DHT22;71973;52.018;5.810;2023-08-21T02:51:29;24.00;69.30
43884;DHT22;71973;52.018;5.810;2023-08-21T02:53:55;24.00;69.30
43884;DHT22;71973;52.018;5.810;2023-08-21T02:56:21;24.00;69.30
43884;DHT22;71973;52.018;5.810;2023-08-21T02:58:46;24.00;69.40
43884;DHT22;71973;52.018;5.810;2023-08-21T03:01:12;24.00;69.20
43884;DHT22;71973;52.018;5.810;2023-08-21T03:03:37;23.90;69.30
43884;DHT22;71973;52.018;5.810;2023-08-21T03:06:03;24.00;69.20
43884;DHT22;71973;52.018;5.810;2023-08-21T03:08:28;24.00;69.30
43884;DHT22;71973;52.018;5.810;2023-08-21T03:10:54;23.90;69.80
43884;DHT22;71973;52.018;5.810;2023-08-21T03:13:19;23.90;69.20
43884;DHT22;71973;52.018;5.810;2023-08-21T03:15:45;23.90;69.30
43884;DHT22;71973;52.018;5.810;2023-08-21T03:18:10;23.90;69.20
43884;DHT22;71973;52.018;5.810;2023-08-21T03:20:36;23.90;69.20
43884;DHT22;71973;52.018;5.810;2023-08-21T03:23:01;23.90;69.30
43884;DHT22;71973;52.018;5.810;2023-08-21T03:25:27;23.90;69.30
43884;DHT22;71973;52.018;5.810;2023-08-21T03:27:53;24.00;69.30
43884;DHT22;71973;52.018;5.810;2023-08-21T03:30:19;23.90;69.30
43884;DHT22;71973;52.018;5.810;2023-08-21T03:32:44;23.90;69.30
43884;DHT22;71973;52.018;5.810;2023-08-21T03:35:10;23.90;69.90
43884;DHT22;71973;52.018;5.810;2023-08-21T03:37:36;23.90;69.30
43884;DHT22;71973;52.018;5.810;2023-08-21T03:40:02;23.90;69.30
43884;DHT22;71973;52.018;5.810;2023-08-21T03:42:29;23.90;69.30
43884;DHT22;71973;52.018;5.810;2023-08-21T03:44:54;23.90;69.30
43884;DHT22;71973;52.018;5.810;2023-08-21T03:47:20;23.90;69.40
43884;DHT22;71973;52.018;5.810;2023-08-21T03:49:45;23.80;69.30
43884;DHT22;71973;52.018;5.810;2023-08-21T03:52:13;23.80;69.30
43884;DHT22;71973;52.018;5.810;2023-08-21T03:54:39;23.90;69.40
43884;DHT22;71973;52.018;5.810;2023-08-21T03:57:05;23.80;69.30
43884;DHT22;71973;52.018;5.810;2023-08-21T03:59:30;23.90;69.40
43884;DHT22;71973;52.018;5.810;2023-08-21T04:01:56;23.80;69.30
43884;DHT22;71973;52.018;5.810;2023-08-21T04:04:21;23.80;69.40
43884;DHT22;71973;52.018;5.810;2023-08-21T04:06:47;23.90;69.30
43884;DHT22;71973;52.018;5.810;2023-08-21T04:09:12;23.80;69.30
43884;DHT22;71973;52.018;5.810;2023-08-21T04:11:38;23.80;69.40
43884;DHT22;71973;52.018;5.810;2023-08-21T04:14:04;23.80;69.50
43884;DHT22;71973;52.018;5.810;2023-08-21T04:16:29;23.80;69.50
43884;DHT22;71973;52.018;5.810;2023-08-21T04:18:56;23.80;69.50
43884;DHT22;71973;52.018;5.810;2023-08-21T04:21:21;23.80;69.50
43884;DHT22;71973;52.018;5.810;2023-08-21T04:23:47;23.80;69.60
43884;DHT22;71973;52.018;5.810;2023-08-21T04:26:12;23.80;69.70
43884;DHT22;71973;52.018;5.810;2023-08-21T04:28:38;23.80;69.70
43884;DHT22;71973;52.018;5.810;2023-08-21T04:31:07;23.80;69.70
43884;DHT22;71973;52.018;5.810;2023-08-21T04:33:33;23.80;69.70
43884;DHT22;71973;52.018;5.810;2023-08-21T04:35:59;23.80;69.70
43884;DHT22;71973;52.018;5.810;2023-08-21T04:38:25;23.80;69.60
43884;DHT22;71973;52.018;5.810;2023-08-21T04:40:51;23.80;69.70
43884;DHT22;71973;52.018;5.810;2023-08-21T04:43:16;23.80;69.70
43884;DHT22;71973;52.018;5.810;2023-08-21T04:45:51;23.80;69.80
43884;DHT22;71973;52.018;5.810;2023-08-21T04:48:20;23.70;69.70
43884;DHT22;71973;52.018;5.810;2023-08-21T04:50:46;23.70;69.70
43884;DHT22;71973;52.018;5.810;2023-08-21T04:53:12;23.70;69.60
43884;DHT22;71973;52.018;5.810;2023-08-21T04:55:40;23.70;69.60
43884;DHT22;71973;52.018;5.810;2023-08-21T04:58:06;23.70;69.60
43884;DHT22;71973;52.018;5.810;2023-08-21T05:00:33;23.70;69.60
43884;DHT22;71973;52.018;5.810;2023-08-21T05:02:58;23.70;69.70
43884;DHT22;71973;52.018;5.810;2023-08-21T05:05:24;23.70;69.70
43884;DHT22;71973;52.018;5.810;2023-08-21T05:07:49;23.70;69.60
43884;DHT22;71973;52.018;5.810;2023-08-21T05:10:15;23.70;69.60
43884;DHT22;71973;52.018;5.810;2023-08-21T05:12:40;23.70;69.70
43884;DHT22;71973;52.018;5.810;2023-08-21T05:15:06;23.70;69.70
43884;DHT22;71973;52.018;5.810;2023-08-21T05:17:32;23.70;69.60
43884;DHT22;71973;52.018;5.810;2023-08-21T05:19:57;23.70;69.70
43884;DHT22;71973;52.018;5.810;2023-08-21T05:22:23;23.70;69.60
43884;DHT22;71973;52.018;5.810;2023-08-21T05:24:49;23.70;69.50
43884;DHT22;71973;52.018;5.810;2023-08-21T05:27:15;23.70;69.50
43884;DHT22;71973;52.018;5.810;2023-08-21T05:29:40;23.70;69.50
43884;DHT22;71973;52.018;5.810;2023-08-21T05:32:06;23.70;69.50
43884;DHT22;71973;52.018;5.810;2023-08-21T05:34:31;23.70;69.70
43884;DHT22;71973;52.018;5.810;2023-08-21T05:36:57;23.70;69.60
43884;DHT22;71973;52.018;5.810;2023-08-21T05:39:23;23.70;69.50
43884;DHT22;71973;52.018;5.810;2023-08-21T05:41:48;23.70;69.50
43884;DHT22;71973;52.018;5.810;2023-08-21T05:44:14;23.60;69.60
43884;DHT22;71973;52.018;5.810;2023-08-21T05:46:39;23.70;69.50
43884;DHT22;71973;52.018;5.810;2023-08-21T05:49:05;23.70;69.40
43884;DHT22;71973;52.018;5.810;2023-08-21T05:51:30;23.70;69.50
43884;DHT22;71973;52.018;5.810;2023-08-21T05:53:56;23.70;69.60
43884;DHT22;71973;52.018;5.810;2023-08-21T05:56:22;23.60;69.50
43884;DHT22;71973;52.018;5.810;2023-08-21T05:58:48;23.70;69.60
43884;DHT22;71973;52.018;5.810;2023-08-21T06:01:13;23.70;69.60
43884;DHT22;71973;52.018;5.810;2023-08-21T06:03:39;23.70;69.60
43884;DHT22;71973;52.018;5.810;2023-08-21T06:06:05;23.70;69.60
43884;DHT22;71973;52.018;5.810;2023-08-21T06:08:31;23.70;69.60
43884;DHT22;71973;52.018;5.810;2023-08-21T06:10:56;23.60;69.60
43884;DHT22;71973;52.018;5.810;2023-08-21T06:13:22;23.70;69.70
43884;DHT22;71973;52.018;5.810;2023-08-21T06:15:48;23.70;69.60
43884;DHT22;71973;52.018;5.810;2023-08-21T06:18:14;23.60;69.60
43884;DHT22;71973;52.018;5.810;2023-08-21T06:20:42;23.70;69.70
43884;DHT22;71973;52.018;5.810;2023-08-21T06:23:09;23.70;69.70
43884;DHT22;71973;52.018;5.810;2023-08-21T06:25:35;23.60;69.60
43884;DHT22;71973;52.018;5.810;2023-08-21T06:28:00;23.70;69.70
43884;DHT22;71973;52.018;5.810;2023-08-21T06:30:27;23.70;69.70
43884;DHT22;71973;52.018;5.810;2023-08-21T06:32:52;23.60;69.60
43884;DHT22;71973;52.018;5.810;2023-08-21T06:35:18;23.70;69.70
43884;DHT22;71973;52.018;5.810;2023-08-21T06:37:44;23.70;69.70
43884;DHT22;71973;52.018;5.810;2023-08-21T06:40:09;23.60;69.70
43884;DHT22;71973;52.018;5.810;2023-08-21T06:42:36;23.70;69.80
43884;DHT22;71973;52.018;5.810;2023-08-21T06:45:03;23.70;69.80
43884;DHT22;71973;52.018;5.810;2023-08-21T06:47:29;23.70;69.80
43884;DHT22;71973;52.018;5.810;2023-08-21T06:49:55;23.60;69.80
43884;DHT22;71973;52.018;5.810;2023-08-21T06:52:20;23.60;69.70
43884;DHT22;71973;52.018;5.810;2023-08-21T06:54:46;23.60;69.70
43884;DHT22;71973;52.018;5.810;2023-08-21T06:57:12;23.60;69.80
43884;DHT22;71973;52.018;5.810;2023-08-21T06:59:37;23.70;69.80
43884;DHT22;71973;52.018;5.810;2023-08-21T07:02:03;23.70;69.70
43884;DHT22;71973;52.018;5.810;2023-08-21T07:04:29;23.70;69.70
43884;DHT22;71973;52.018;5.810;2023-08-21T07:06:54;23.70;69.70
43884;DHT22;71973;52.018;5.810;2023-08-21T07:09:20;23.70;69.80
43884;DHT22;71973;52.018;5.810;2023-08-21T07:11:46;23.70;69.80
43884;DHT22;71973;52.018;5.810;2023-08-21T07:14:11;23.70;69.90
43884;DHT22;71973;52.018;5.810;2023-08-21T07:16:39;23.70;69.90
43884;DHT22;71973;52.018;5.810;2023-08-21T07:19:04;23.70;69.90
43884;DHT22;71973;52.018;5.810;2023-08-21T07:21:30;23.70;70.00
43884;DHT22;71973;52.018;5.810;2023-08-21T07:23:56;23.70;70.00
43884;DHT22;71973;52.018;5.810;2023-08-21T07:26:21;23.70;70.00
43884;DHT22;71973;52.018;5.810;2023-08-21T07:28:47;23.70;70.00
43884;DHT22;71973;52.018;5.810;2023-08-21T07:31:12;23.70;70.10
43884;DHT22;71973;52.018;5.810;2023-08-21T07:33:38;23.60;70.10
43884;DHT22;71973;52.018;5.810;2023-08-21T07:36:05;23.70;70.10
43884;DHT22;71973;52.018;5.810;2023-08-21T07:38:31;23.70;70.10
43884;DHT22;71973;52.018;5.810;2023-08-21T07:41:08;23.70;70.20
43884;DHT22;71973;52.018;5.810;2023-08-21T07:43:42;23.70;70.20
43884;DHT22;71973;52.018;5.810;2023-08-21T07:46:09;23.70;70.20
43884;DHT22;71973;52.018;5.810;2023-08-21T07:48:38;23.70;70.20
43884;DHT22;71973;52.018;5.810;2023-08-21T07:51:03;23.70;70.20
43884;DHT22;71973;52.018;5.810;2023-08-21T07:53:29;23.70;70.30
43884;DHT22;71973;52.018;5.810;2023-08-21T07:55:56;23.70;70.50
43884;DHT22;71973;52.018;5.810;2023-08-21T07:58:22;23.70;70.50
43884;DHT22;71973;52.018;5.810;2023-08-21T08:00:48;23.70;70.50
43884;DHT22;71973;52.018;5.810;2023-08-21T08:03:14;23.70;70.50
43884;DHT22;71973;52.018;5.810;2023-08-21T08:05:40;23.70;70.40
43884;DHT22;71973;52.018;5.810;2023-08-21T08:08:06;23.70;70.50
43884;DHT22;71973;52.018;5.810;2023-08-21T08:10:31;23.70;70.40
43884;DHT22;71973;52.018;5.810;2023-08-21T08:12:57;23.70;70.40
43884;DHT22;71973;52.018;5.810;2023-08-21T08:15:23;23.70;70.40
43884;DHT22;71973;52.018;5.810;2023-08-21T08:17:48;23.70;70.50
43884;DHT22;71973;52.018;5.810;2023-08-21T08:20:18;23.70;70.40
43884;DHT22;71973;52.018;5.810;2023-08-21T08:22:44;23.70;70.40
43884;DHT22;71973;52.018;5.810;2023-08-21T08:25:10;23.70;70.50
43884;DHT22;71973;52.018;5.810;2023-08-21T08:27:36;23.70;70.50
43884;DHT22;71973;52.018;5.810;2023-08-21T08:30:01;23.70;70.40
43884;DHT22;71973;52.018;5.810;2023-08-21T08:32:27;23.70;70.50
43884;DHT22;71973;52.018;5.810;2023-08-21T08:34:53;23.70;70.50
43884;DHT22;71973;52.018;5.810;2023-08-21T08:37:18;23.70;70.50
43884;DHT22;71973;52.018;5.810;2023-08-21T08:39:46;23.70;70.50
43884;DHT22;71973;52.018;5.810;2023-08-21T08:42:14;23.70;70.50
43884;DHT22;71973;52.018;5.810;2023-08-21T08:44:40;23.70;70.50
43884;DHT22;71973;52.018;5.810;2023-08-21T08:47:08;23.70;70.50
43884;DHT22;71973;52.018;5.810;2023-08-21T08:49:33;23.70;70.50
43884;DHT22;71973;52.018;5.810;2023-08-21T08:52:00;23.70;70.60
43884;DHT22;71973;52.018;5.810;2023-08-21T08:54:27;23.70;70.60
43884;DHT22;71973;52.018;5.810;2023-08-21T08:56:53;23.70;70.60
43884;DHT22;71973;52.018;5.810;2023-08-21T08:59:19;23.70;70.60
43884;DHT22;71973;52.018;5.810;2023-08-21T09:01:45;23.70;70.70
43884;DHT22;71973;52.018;5.810;2023-08-21T09:04:11;23.70;70.70
43884;DHT22;71973;52.018;5.810;2023-08-21T09:06:37;23.70;70.70
43884;DHT22;71973;52.018;5.810;2023-08-21T09:09:02;23.70;70.70
43884;DHT22;71973;52.018;5.810;2023-08-21T09:11:28;23.70;70.70
43884;DHT22;71973;52.018;5.810;2023-08-21T09:13:55;23.70;70.70
43884;DHT22;71973;52.018;5.810;2023-08-21T09:16:22;23.80;70.80
43884;DHT22;71973;52.018;5.810;2023-08-21T09:18:53;23.80;70.80
43884;DHT22;71973;52.018;5.810;2023-08-21T09:21:20;23.80;70.90
43884;DHT22;71973;52.018;5.810;2023-08-21T09:23:46;23.80;70.90
43884;DHT22;71973;52.018;5.810;2023-08-21T09:26:22;23.80;70.90
43884;DHT22;71973;52.018;5.810;2023-08-21T09:28:49;23.80;70.90
43884;DHT22;71973;52.018;5.810;2023-08-21T09:31:15;23.80;70.80
43884;DHT22;71973;52.018;5.810;2023-08-21T09:33:42;23.80;70.90
43884;DHT22;71973;52.018;5.810;2023-08-21T09:36:09;23.80;70.90
43884;DHT22;71973;52.018;5.810;2023-08-21T09:38:38;23.80;70.90
43884;DHT22;71973;52.018;5.810;2023-08-21T09:41:06;23.80;71.00
43884;DHT22;71973;52.018;5.810;2023-08-21T09:43:31;23.80;71.00
43884;DHT22;71973;52.018;5.810;2023-08-21T09:45:57;23.80;71.10
43884;DHT22;71973;52.018;5.810;2023-08-21T09:48:23;23.80;71.00
43884;DHT22;71973;52.018;5.810;2023-08-21T09:50:51;23.80;71.10
43884;DHT22;71973;52.018;5.810;2023-08-21T09:53:17;23.80;71.10
43884;DHT22;71973;52.018;5.810;2023-08-21T09:55:42;23.80;71.10
43884;DHT22;71973;52.018;5.810;2023-08-21T09:58:08;23.80;71.10
43884;DHT22;71973;52.018;5.810;2023-08-21T10:00:36;23.80;71.10
43884;DHT22;71973;52.018;5.810;2023-08-21T10:03:04;23.80;71.10
43884;DHT22;71973;52.018;5.810;2023-08-21T10:05:33;23.80;71.10
43884;DHT22;71973;52.018;5.810;2023-08-21T10:08:02;23.80;71.10
43884;DHT22;71973;52.018;5.810;2023-08-21T10:10:36;23.80;71.10
43884;DHT22;71973;52.018;5.810;2023-08-21T10:13:02;23.90;71.10
43884;DHT22;71973;52.018;5.810;2023-08-21T10:15:28;23.90;71.10
43884;DHT22;71973;52.018;5.810;2023-08-21T10:17:55;23.80;71.10
43884;DHT22;71973;52.018;5.810;2023-08-21T10:20:21;23.90;71.10
43884;DHT22;71973;52.018;5.810;2023-08-21T10:22:54;23.90;71.10
43884;DHT22;71973;52.018;5.810;2023-08-21T10:25:24;23.90;71.10
43884;DHT22;71973;52.018;5.810;2023-08-21T10:27:55;23.90;71.10
43884;DHT22;71973;52.018;5.810;2023-08-21T10:30:22;23.90;71.20
43884;DHT22;71973;52.018;5.810;2023-08-21T10:32:52;24.00;71.10
43884;DHT22;71973;52.018;5.810;2023-08-21T10:35:23;24.00;71.00
43884;DHT22;71973;52.018;5.810;2023-08-21T10:38:08;23.90;71.10
43884;DHT22;71973;52.018;5.810;2023-08-21T10:40:36;24.00;71.10
43884;DHT22;71973;52.018;5.810;2023-08-21T10:43:01;24.00;71.10
43884;DHT22;71973;52.018;5.810;2023-08-21T10:45:28;24.00;71.10
43884;DHT22;71973;52.018;5.810;2023-08-21T10:47:57;24.10;71.00
43884;DHT22;71973;52.018;5.810;2023-08-21T10:50:23;24.00;70.90
43884;DHT22;71973;52.018;5.810;2023-08-21T10:52:51;24.10;71.10
43884;DHT22;71973;52.018;5.810;2023-08-21T10:55:17;24.00;71.20
43884;DHT22;71973;52.018;5.810;2023-08-21T10:57:48;24.10;71.30
43884;DHT22;71973;52.018;5.810;2023-08-21T11:00:16;24.00;71.20
43884;DHT22;71973;52.018;5.810;2023-08-21T11:02:44;24.00;71.10
43884;DHT22;71973;52.018;5.810;2023-08-21T11:05:11;24.00;71.80
43884;DHT22;71973;52.018;5.810;2023-08-21T11:07:39;24.10;71.10
43884;DHT22;71973;52.018;5.810;2023-08-21T11:10:10;24.10;70.80
43884;DHT22;71973;52.018;5.810;2023-08-21T11:12:37;24.10;70.80
43884;DHT22;71973;52.018;5.810;2023-08-21T11:15:05;24.10;70.70
43884;DHT22;71973;52.018;5.810;2023-08-21T11:17:31;24.10;70.60
43884;DHT22;71973;52.018;5.810;2023-08-21T11:19:57;24.10;70.60
43884;DHT22;71973;52.018;5.810;2023-08-21T11:22:31;24.10;70.60
43884;DHT22;71973;52.018;5.810;2023-08-21T11:24:57;24.10;71.30
43884;DHT22;71973;52.018;5.810;2023-08-21T11:27:23;24.10;70.60
43884;DHT22;71973;52.018;5.810;2023-08-21T11:29:50;24.20;70.70
43884;DHT22;71973;52.018;5.810;2023-08-21T11:32:19;24.10;70.70
43884;DHT22;71973;52.018;5.810;2023-08-21T11:34:55;24.10;70.70
43884;DHT22;71973;52.018;5.810;2023-08-21T11:37:25;24.10;70.70
43884;DHT22;71973;52.018;5.810;2023-08-21T11:39:57;24.20;70.80
43884;DHT22;71973;52.018;5.810;2023-08-21T11:42:29;24.20;70.80
43884;DHT22;71973;52.018;5.810;2023-08-21T11:44:56;24.20;70.80
43884;DHT22;71973;52.018;5.810;2023-08-21T11:47:22;24.20;70.80
43884;DHT22;71973;52.018;5.810;2023-08-21T11:49:49;24.20;70.80
43884;DHT22;71973;52.018;5.810;2023-08-21T11:52:23;24.20;70.80
43884;DHT22;71973;52.018;5.810;2023-08-21T11:54:53;24.20;70.70
43884;DHT22;71973;52.018;5.810;2023-08-21T11:57:20;24.20;70.70
43884;DHT22;71973;52.018;5.810;2023-08-21T11:59:53;24.30;70.80
43884;DHT22;71973;52.018;5.810;2023-08-21T12:02:23;24.30;70.80
43884;DHT22;71973;52.018;5.810;2023-08-21T12:05:14;24.30;70.70
43884;DHT22;71973;52.018;5.810;2023-08-21T12:07:38;24.30;70.80
43884;DHT22;71973;52.018;5.810;2023-08-21T12:10:04;24.30;70.80
43884;DHT22;71973;52.018;5.810;2023-08-21T12:12:30;24.40;70.80
43884;DHT22;71973;52.018;5.810;2023-08-21T12:14:55;24.40;70.80
43884;DHT22;71973;52.018;5.810;2023-08-21T12:17:21;24.40;70.80
43884;DHT22;71973;52.018;5.810;2023-08-21T12:19:47;24.40;70.70
43884;DHT22;71973;52.018;5.810;2023-08-21T12:22:12;24.40;70.80
43884;DHT22;71973;52.018;5.810;2023-08-21T12:24:38;24.40;70.80
43884;DHT22;71973;52.018;5.810;2023-08-21T12:27:04;24.40;70.70
43884;DHT22;71973;52.018;5.810;2023-08-21T12:29:29;24.40;70.90
43884;DHT22;71973;52.018;5.810;2023-08-21T12:31:55;24.40;70.60
43884;DHT22;71973;52.018;5.810;2023-08-21T12:34:21;24.40;71.30
43884;DHT22;71973;52.018;5.810;2023-08-21T12:36:46;24.40;70.60
43884;DHT22;71973;52.018;5.810;2023-08-21T12:39:12;24.40;70.70
43884;DHT22;71973;52.018;5.810;2023-08-21T12:41:38;24.50;70.70
43884;DHT22;71973;52.018;5.810;2023-08-21T12:44:04;24.50;70.80
43884;DHT22;71973;52.018;5.810;2023-08-21T12:46:30;24.50;70.70
43884;DHT22;71973;52.018;5.810;2023-08-21T12:48:58;24.50;70.80
43884;DHT22;71973;52.018;5.810;2023-08-21T12:51:27;24.50;70.80
43884;DHT22;71973;52.018;5.810;2023-08-21T12:53:52;24.50;70.80
43884;DHT22;71973;52.018;5.810;2023-08-21T12:56:18;24.60;70.80
43884;DHT22;71973;52.018;5.810;2023-08-21T12:58:45;24.50;70.80
43884;DHT22;71973;52.018;5.810;2023-08-21T13:01:10;24.60;70.80
43884;DHT22;71973;52.018;5.810;2023-08-21T13:03:37;24.60;70.70
43884;DHT22;71973;52.018;5.810;2023-08-21T13:06:03;24.60;70.80
43884;DHT22;71973;52.018;5.810;2023-08-21T13:08:29;24.60;70.70
43884;DHT22;71973;52.018;5.810;2023-08-21T13:10:54;24.60;70.80
43884;DHT22;71973;52.018;5.810;2023-08-21T13:13:20;24.60;70.80
43884;DHT22;71973;52.018;5.810;2023-08-21T13:15:46;24.60;70.70
43884;DHT22;71973;52.018;5.810;2023-08-21T13:18:12;24.60;70.70
43884;DHT22;71973;52.018;5.810;2023-08-21T13:20:42;24.60;70.60
43884;DHT22;71973;52.018;5.810;2023-08-21T13:23:08;24.60;70.50
43884;DHT22;71973;52.018;5.810;2023-08-21T13:25:34;24.60;70.50
43884;DHT22;71973;52.018;5.810;2023-08-21T13:28:00;24.70;70.50
43884;DHT22;71973;52.018;5.810;2023-08-21T13:30:26;24.70;70.50
43884;DHT22;71973;52.018;5.810;2023-08-21T13:32:51;24.70;70.50
43884;DHT22;71973;52.018;5.810;2023-08-21T13:35:17;24.70;70.50
43884;DHT22;71973;52.018;5.810;2023-08-21T13:37:43;24.70;70.50
43884;DHT22;71973;52.018;5.810;2023-08-21T13:40:08;24.70;70.50
43884;DHT22;71973;52.018;5.810;2023-08-21T13:42:42;24.70;70.50
43884;DHT22;71973;52.018;5.810;2023-08-21T13:45:16;24.70;70.50
43884;DHT22;71973;52.018;5.810;2023-08-21T13:47:43;24.80;70.50
43884;DHT22;71973;52.018;5.810;2023-08-21T13:50:10;24.80;70.50
43884;DHT22;71973;52.018;5.810;2023-08-21T13:52:36;24.80;70.50
43884;DHT22;71973;52.018;5.810;2023-08-21T13:55:04;24.80;70.50
43884;DHT22;71973;52.018;5.810;2023-08-21T13:57:30;24.80;70.40
43884;DHT22;71973;52.018;5.810;2023-08-21T13:59:55;24.80;70.40
43884;DHT22;71973;52.018;5.810;2023-08-21T14:02:21;24.80;70.40
43884;DHT22;71973;52.018;5.810;2023-08-21T14:04:48;24.80;70.50
43884;DHT22;71973;52.018;5.810;2023-08-21T14:07:14;24.80;70.50
43884;DHT22;71973;52.018;5.810;2023-08-21T14:09:39;24.80;70.40
43884;DHT22;71973;52.018;5.810;2023-08-21T14:12:05;24.80;70.30
43884;DHT22;71973;52.018;5.810;2023-08-21T14:14:32;24.80;70.30
43884;DHT22;71973;52.018;5.810;2023-08-21T14:16:58;24.80;70.40
43884;DHT22;71973;52.018;5.810;2023-08-21T14:19:24;24.80;70.30
43884;DHT22;71973;52.018;5.810;2023-08-21T14:21:49;24.80;70.30
43884;DHT22;71973;52.018;5.810;2023-08-21T14:24:15;24.90;70.30
43884;DHT22;71973;52.018;5.810;2023-08-21T14:26:41;24.90;70.30
43884;DHT22;71973;52.018;5.810;2023-08-21T14:29:06;24.90;70.30
43884;DHT22;71973;52.018;5.810;2023-08-21T14:31:32;24.90;70.20
43884;DHT22;71973;52.018;5.810;2023-08-21T14:33:57;24.90;70.30
43884;DHT22;71973;52.018;5.810;2023-08-21T14:36:23;25.00;70.30
43884;DHT22;71973;52.018;5.810;2023-08-21T14:38:49;24.90;70.20
43884;DHT22;71973;52.018;5.810;2023-08-21T14:41:16;24.90;70.20
43884;DHT22;71973;52.018;5.810;2023-08-21T14:43:42;25.00;70.20
43884;DHT22;71973;52.018;5.810;2023-08-21T14:46:08;25.00;70.20
43884;DHT22;71973;52.018;5.810;2023-08-21T14:48:33;24.90;70.20
43884;DHT22;71973;52.018;5.810;2023-08-21T14:50:58;24.90;70.20
43884;DHT22;71973;52.018;5.810;2023-08-21T14:53:24;24.90;70.20
43884;DHT22;71973;52.018;5.810;2023-08-21T14:55:49;24.90;70.10
43884;DHT22;71973;52.018;5.810;2023-08-21T14:58:16;25.00;70.10
43884;DHT22;71973;52.018;5.810;2023-08-21T15:00:41;25.00;70.10
43884;DHT22;71973;52.018;5.810;2023-08-21T15:03:07;24.90;70.00
43884;DHT22;71973;52.018;5.810;2023-08-21T15:05:32;24.90;70.10
43884;DHT22;71973;52.018;5.810;2023-08-21T15:07:58;24.90;70.10
43884;DHT22;71973;52.018;5.810;2023-08-21T15:10:26;24.90;70.10
43884;DHT22;71973;52.018;5.810;2023-08-21T15:12:52;24.90;70.00
43884;DHT22;71973;52.018;5.810;2023-08-21T15:15:17;25.00;70.10
43884;DHT22;71973;52.018;5.810;2023-08-21T15:17:45;25.00;70.10
43884;DHT22;71973;52.018;5.810;2023-08-21T15:20:10;25.00;70.00
43884;DHT22;71973;52.018;5.810;2023-08-21T15:22:38;25.00;70.00
43884;DHT22;71973;52.018;5.810;2023-08-21T15:25:04;25.00;70.10